TFM - Tactical Decision Aid
ID: Runway Winds: CIG/VIS Threshold:

KMCO - Orlando Intl, FL, US

Updated at: 0117 UTC 12 May 2021
Latest TAF at: 0001 UTC 12 May 2021

TAF Board

Time0053Z 12/02Z 12/03Z 12/04Z 12/05Z 12/06Z 12/07Z 12/08Z 12/09Z 12/10Z 12/11Z 12/12Z 12/13Z 12/14Z>>
Type OBS PRVL PRVL PRVL PRVL PRVL PRVL PRVL PRVL PRVL PRVL PRVL PRVL PRVL
VIS 10 >6 >6 >6 >6 >6 >6 >6 >6 >6 >6 >6 >6 >6
CIG 250 250 250 250 250 250 250 250 250 250 250 250 250 200
Cover BKN BKN BKN BKN BKN BKN BKN BKN BKN BKN BKN BKN BKN BKN
FltCat VFR VFR VFR VFR VFR VFR VFR VFR VFR VFR VFR VFR VFR VFR
WX -- -- -- -- -- -- -- -- -- -- -- -- -- --
WDir 50 VRB VRB VRB VRB VRB VRB VRB VRB VRB VRB VRB VRB 240
WSpd 4 3 3 3 3 3 3 3 3 3 3 3 3 8
WGst -- -- -- -- -- -- -- -- -- -- -- -- -- --

TDA Impact Legend

  None Marginal Slight Moderate High
Visibility (sm) >5 3≤X≤5 1≤X<3 0.5≤X<1 <0.5
Ceiling (100 ft) >30 10≤X≤30 4≤X<10 2≤X<4 <2
Wind Speed (kt) <15 15≤X<25 25≤X<30 ≥30
Wind Gust (kt) <15 15≤X<25 25≤X<35 ≥35
Weather No Wx Reported VCTS -TS,-FZRA TS,FZRA +TS,+FZRA
TAF
KMCO 120001Z 1200/1306 VRB03KT P6SM FEW080 BKN250
  FM121400 24008KT P6SM SCT035 BKN200
  FM121800 27009KT P6SM VCTS SCT045CB BKN080
  TEMPO 1219/1221 3SM TSRA BKN030CB
  FM122300 34008KT P6SM SCT050 BKN250


METAR
KMCO 120053Z 05004KT 10SM FEW100 SCT150 BKN250 25/19 A3006 RMK AO2 SLP176 T02500194
KMCO 112353Z 07008KT 10SM FEW055 FEW100 SCT150 BKN250 26/19 A3005 RMK AO2 SLP175 T02560194 10328 20256 51009
KMCO 112253Z 04015KT 10SM FEW055 SCT100 BKN130 BKN250 27/22 A3004 RMK AO2 LTG DSNT E AND SE AND NW SLP170 T02720217
KMCO 112153Z 36007KT 10SM FEW055 SCT100 BKN130 BKN250 28/19 A3004 RMK AO2 LTG DSNT NE AND E SLP170 T02830194

Radar Display
Forecast Discussion